Terminal Aerodrome Forecast
Issued by NWS

Home | Current Version | Previous Version | Text Only | Print | Product List | Glossary Off
Versions: 1 2 3 4 5 6 7 8 9 10 11 12

000
FTUS43 KMPX 192338
TAFRWF
TAF
KRWF 192338Z 2000/2024 02007KT P6SM BKN250
     FM200200 36004KT P6SM OVC200
     FM200600 35003KT P6SM OVC150
     FM201900 32006KT P6SM BKN200=

USA.gov is the U.S. government's official web portal to all federal, state and local government web resources and services.